Flight Track Log - Related Links

Times and Time Zones

All times are in EDT time to prevent confusion due to time zone crossing. See the N379CD flight status page for this flight to view local times or setup timezone preferences in your user account.

Time Position Orientation Groundspeed Altitude Reporting Facility
EDT Latitude Longitude Course Direction KTS MPH feet Rate Location/Type
Thu 12:49:00 PM 43.4300 -84.3528 196° South  Level Estimated
Thu 12:50:00 PM 43.3832 -84.3699 195° South  Level FlightAware Approximate
Thu 12:51:00 PM 43.3364 -84.3869 195° South  Level FlightAware Approximate
Thu 12:52:00 PM 43.2896 -84.4040 195° South  Level FlightAware Approximate
Thu 12:53:00 PM 43.2427 -84.4210 195° South  Level FlightAware Approximate
Thu 12:54:00 PM 43.1959 -84.4380 195° South  Level FlightAware Approximate
Thu 12:55:00 PM 43.1491 -84.4549 195° South  Level FlightAware Approximate
Thu 12:56:00 PM 43.1025 -84.4730 196° South  Level Estimated
Thu 12:57:00 PM 43.0559 -84.4910 196° South  Level FlightAware Approximate
Thu 12:58:00 PM 43.0093 -84.5090 196° South  Level FlightAware Approximate
Thu 12:59:00 PM 42.9626 -84.5270 196° South  Level FlightAware Approximate
Thu 01:00:00 PM 42.9160 -84.5449 196° South  Level FlightAware Approximate
Thu 01:01:00 PM 42.8694 -84.5628 196° South  Level FlightAware Approximate
Thu 01:02:00 PM 42.8228 -84.5807 196° South  Level FlightAware Approximate
Thu 01:02:44 PM 42.7236 -84.6444 196° South 189 217 4,000  Level Chicago Center
Thu 01:03:00 PM 42.7761 -84.5985 196° South  Level FlightAware Approximate
Thu 01:03:46 PM 42.6614 -84.6636 193° South 193 222 4,000  Level Chicago Center
Thu 01:04:00 PM 42.7295 -84.6163 196° South  Level FlightAware Approximate
Thu 01:04:48 PM 42.6119 -84.6842 197° South 189 217 4,000  Level Chicago Center
Thu 01:05:00 PM 42.6829 -84.6341 196° South  Level FlightAware Approximate
Thu 01:05:50 PM 42.5600 -84.7036 195° South 191 220 4,000  Level Chicago Center
Thu 01:06:00 PM 42.6362 -84.6519 196° South  Level FlightAware Approximate
Thu 01:06:52 PM 42.5083 -84.7239 196° South 192 221 4,000  Level Chicago Center
Thu 01:07:00 PM 42.5896 -84.6696 196° South  Level FlightAware Approximate
Thu 01:07:54 PM 42.4581 -84.7417 195° South 190 219 4,000  Level Chicago Center
Thu 01:08:00 PM 42.5429 -84.6873 196° South  Level FlightAware Approximate
Thu 01:08:57 PM 42.4078 -84.7603 195° South 189 217 4,000  Level Chicago Center
Thu 01:09:59 PM 42.3483 -84.7819 195° South 187 215 4,000  Level Chicago Center
Thu 01:11:01 PM 42.2994 -84.7997 195° South 185 213 4,000  Level Chicago Center
Thu 01:12:03 PM 42.2506 -84.8183 196° South 183 211 4,000  Level Chicago Center
Thu 01:13:05 PM 42.2025 -84.8358 195° South 181 208 4,000  Level Chicago Center
Thu 01:14:07 PM 42.1550 -84.8539 196° South 179 206 4,000  Level Chicago Center
Thu 01:15:09 PM 42.1081 -84.8703 195° South 177 204 4,000  Level Chicago Center
Thu 01:16:11 PM 42.0522 -84.8914 196° South 175 201 4,000  Level Chicago Center
Thu 01:17:13 PM 42.0064 -84.9081 195° South 173 199 4,000  Level Chicago Center
Thu 01:18:15 PM 41.9575 -84.9269 196° South 176 203 4,000  Level Chicago Center
Thu 01:19:18 PM 41.9089 -84.9436 194° South 179 206 4,000  Level Chicago Center
Thu 01:20:20 PM 41.8611 -84.9606 195° South 179 206 4,000  Level Chicago Center
Thu 01:21:22 PM 41.8128 -84.9792 196° South 179 206 4,000  Level Chicago Center
Thu 01:22:24 PM 41.7561 -84.9994 195° South 178 205 4,000  Level Chicago Center
Thu 01:23:26 PM 41.7106 -85.0167 196° South 174 200 4,000  Level Chicago Center
Thu 01:24:28 PM 41.6656 -85.0328 195° South 170 196 4,000  Level Chicago Center
Thu 01:25:30 PM 41.6219 -85.0486 195° South 166 191 4,000  Level Chicago Center
Thu 01:26:32 PM 41.5778 -85.0650 196° South 164 189 4,000  Level Chicago Center
Thu 01:27:34 PM 41.5333 -85.0814 195° South 165 190 4,000  Level Chicago Center
Thu 01:28:37 PM 41.4792 -85.1000 194° South 166 191 4,000  Level Chicago Center
Thu 01:29:39 PM 41.4344 -85.1169 196° South 166 191 4,000  Level Chicago Center
Thu 01:30:41 PM 41.3900 -85.1331 195° South 166 191 4,000  Level Chicago Center
Thu 01:31:43 PM 41.3453 -85.1492 195° South 166 191 4,000  Level Chicago Center
Thu 01:32:45 PM 41.3017 -85.1650 195° South 164 189 4,000  Level Chicago Center
Thu 01:33:47 PM 41.2575 -85.1803 195° South 164 189 4,000  Level Chicago Center
Thu 01:34:49 PM 41.2089 -85.1978 195° South 164 189 4,000 48 Level Chicago Center
Thu 01:35:51 PM 41.1603 -85.2150 194° South 164 189 4,100  Climbing Chicago Center
Thu 01:36:00 PM 41.1547 -85.2160 194° South  Level FlightAware Approximate
Thu 01:36:53 PM 41.1156 -85.2322 196° South 165 190 4,000  Level Chicago Center
Thu 01:37:56 PM 41.0753 -85.2594 207° Southwest 164 189 4,000  Level Chicago Center
Thu 01:40:00 PM 41.0117 -85.3444 225° Southwest 162 186 4,000  Level Chicago Center
Thu 01:41:02 PM 40.9794 -85.3847 223° Southwest 161 185 4,000  Level Chicago Center
Thu 01:42:04 PM 40.9336 -85.4211 211° Southwest 161 185 4,000  Level Chicago Center
Thu 01:43:00 PM 40.8338 -85.3231 194° South  Level FlightAware Approximate
Thu 01:43:06 PM 40.8914 -85.4444 203° Southwest 163 188 4,000  Level Chicago Center
Thu 01:44:08 PM 40.8481 -85.4697 204° Southwest 166 191 4,000  Level Chicago Center
Thu 01:45:10 PM 40.8061 -85.4942 204° Southwest 166 191 4,000  Level Chicago Center
Thu 01:46:16 PM 40.7533 -85.5267 205° Southwest 167 192 4,000  Level Chicago Center
Thu 01:47:15 PM 40.7133 -85.5481 202° Southwest 166 191 4,000  Level Chicago Center
Thu 01:48:17 PM 40.6683 -85.5775 206° Southwest 166 191 4,000  Level Chicago Center
Thu 01:49:18 PM 40.6281 -85.6003 203° Southwest 166 191 4,000  Level Chicago Center
Thu 01:50:19 PM 40.5836 -85.6256 203° Southwest 166 191 4,000  Level Chicago Center
Thu 01:51:23 PM 40.5394 -85.6497 203° Southwest 167 192 4,000  Level Chicago Center
Thu 01:52:20 PM 40.4989 -85.6764 207° Southwest 167 192 4,000  Level Chicago Center
Thu 01:53:27 PM 40.4519 -85.6919 194° South 168 193 4,000  Level Chicago Center
Thu 01:54:29 PM 40.4047 -85.7033 190° South 170 196 4,000  Level Chicago Center
Thu 01:55:31 PM 40.3575 -85.7183 194° South 172 198 4,000  Level Chicago Center
Thu 01:56:33 PM 40.3114 -85.7311 192° South 171 197 4,000  Level Chicago Center
Thu 01:57:36 PM 40.2558 -85.7475 193° South 170 196 4,000  Level Chicago Center
Thu 01:58:38 PM 40.2086 -85.7625 194° South 172 198 4,000  Level Chicago Center
Thu 01:59:40 PM 40.1631 -85.7758 193° South 171 197 4,000  Level Chicago Center
Thu 02:01:32 PM 40.0667 -85.8000 191° South 170 196 4,000  Level Indianapolis TRACON
Thu 02:02:32 PM 40.0333 -85.8167 201° Southwest 171 197 4,000  Level Indianapolis TRACON
Thu 02:03:26 PM 39.9878 -85.8289 192° South 170 196 4,000  Level Indianapolis Center
Thu 02:04:28 PM 39.9422 -85.8425 193° South 169 194 4,000  Level Indianapolis Center
Thu 02:05:30 PM 39.8969 -85.8556 192° South 168 193 4,000  Level Indianapolis Center
Thu 02:06:32 PM 39.8522 -85.8681 192° South 166 191 4,000  Level Indianapolis Center
Thu 02:07:33 PM 39.8086 -85.8869 198° South 165 190 4,000  Level Indianapolis Center
Thu 02:08:35 PM 39.7622 -85.9272 214° Southwest 166 191 4,000  Level Indianapolis Center
Thu 02:09:37 PM 39.7231 -85.9594 212° Southwest 166 191 4,000  Level Indianapolis Center
Thu 02:10:39 PM 39.6836 -85.9917 212° Southwest 166 191 4,000  Level Indianapolis Center
Thu 02:11:40 PM 39.6439 -86.0239 212° Southwest 167 192 4,000  Level Indianapolis Center
Thu 02:12:42 PM 39.6056 -86.0564 213° Southwest 166 191 4,000  Level Indianapolis Center
Thu 02:13:44 PM 39.5683 -86.0914 216° Southwest 165 190 4,000  Level Indianapolis Center
Thu 02:14:46 PM 39.5389 -86.1367 230° Southwest 171 197 4,000  Level Indianapolis Center
Thu 02:15:47 PM 39.5083 -86.1797 227° Southwest 165 190 4,000  Level Indianapolis Center
Thu 02:16:49 PM 39.4775 -86.2236 228° Southwest 164 189 4,000  Level Indianapolis Center
Thu 02:17:51 PM 39.4419 -86.2756 228° Southwest 162 186 4,000  Level Indianapolis Center
Thu 02:18:53 PM 39.3964 -86.2861 190° South 168 193 4,000  Level Indianapolis Center
Thu 02:19:54 PM 39.3489 -86.2967 190° South 169 194 4,000  Level Indianapolis Center
Thu 02:20:56 PM 39.3033 -86.3072 190° South 168 193 4,000  Level Indianapolis Center
Thu 02:21:58 PM 39.2569 -86.3158 188° South 168 193 4,000  Level Indianapolis Center
Thu 02:23:00 PM 39.2111 -86.3233 187° South 167 192 4,000  Level Indianapolis Center
Thu 02:24:01 PM 39.1647 -86.3317 188° South 166 191 4,000  Level Indianapolis Center
Thu 02:25:03 PM 39.1097 -86.3444 190° South 167 192 4,000  Level Indianapolis Center
Thu 02:26:05 PM 39.0631 -86.3536 189° South 168 193 4,000  Level Indianapolis Center
Thu 02:27:07 PM 39.0167 -86.3631 189° South 169 194 4,000  Level Indianapolis Center
Thu 02:28:09 PM 38.9703 -86.3708 187° South 167 192 4,000  Level Indianapolis Center
Thu 02:29:10 PM 38.9247 -86.3803 189° South 166 191 4,000  Level Indianapolis Center
Thu 02:30:12 PM 38.8767 -86.3900 189° South 163 188 4,000  Level Indianapolis Center
Thu 02:31:14 PM 38.8317 -86.3975 187° South 162 186 4,000  Level Indianapolis Center
Thu 02:32:16 PM 38.7858 -86.4067 189° South 165 190 4,000  Level Indianapolis Center
Thu 02:33:18 PM 38.7383 -86.4147 188° South 169 194 4,000  Level Indianapolis Center
Thu 02:34:20 PM 38.6919 -86.4239 189° South 169 194 4,000  Level Indianapolis Center
Thu 02:35:21 PM 38.6356 -86.4350 189° South 169 194 4,000  Level Indianapolis Center
Thu 02:36:23 PM 38.5881 -86.4436 188° South 171 197 4,000  Level Indianapolis Center
Thu 02:37:25 PM 38.5403 -86.4531 189° South 172 198 4,000  Level Indianapolis Center
Thu 02:38:27 PM 38.4928 -86.4619 188° South 172 198 4,000  Level Indianapolis Center
Thu 02:39:29 PM 38.4456 -86.4711 189° South 171 197 4,000  Level Indianapolis Center
Thu 02:40:31 PM 38.3986 -86.4800 188° South 170 196 4,000  Level Indianapolis Center
Thu 02:41:33 PM 38.3525 -86.4881 188° South 168 193 4,000  Level Indianapolis Center
Thu 02:42:35 PM 38.3056 -86.4975 189° South 168 193 4,000  Level Indianapolis Center
Thu 02:43:37 PM 38.2481 -86.5086 189° South 170 196 4,000  Level Indianapolis Center
Thu 02:44:39 PM 38.1997 -86.5181 189° South 173 199 4,000  Level Indianapolis Center
Thu 02:45:41 PM 38.1508 -86.5272 188° South 174 200 4,000  Level Indianapolis Center
Thu 02:46:43 PM 38.1036 -86.5358 188° South 173 199 4,000  Level Indianapolis Center
Thu 02:47:45 PM 38.0553 -86.5444 188° South 173 199 4,000 48 Level Indianapolis Center
Thu 02:48:47 PM 38.0078 -86.5525 188° South 172 198 4,100 48 Climbing Indianapolis Center
Thu 02:49:49 PM 37.9606 -86.5617 189° South 171 197 4,100  Level Indianapolis Center
Thu 02:50:51 PM 37.9136 -86.5706 188° South 171 197 4,100  Level Indianapolis Center
Thu 02:51:53 PM 37.8667 -86.5800 189° South 170 196 4,100  Level Indianapolis Center
Thu 02:52:55 PM 37.8103 -86.5900 188° South 169 194 4,100  Level Indianapolis Center
Thu 02:53:57 PM 37.7633 -86.5986 188° South 169 194 4,100 -48 Level Indianapolis Center
Thu 02:54:59 PM 37.7169 -86.6067 188° South 169 194 4,000  Descending Indianapolis Center
Thu 02:56:01 PM 37.6697 -86.6167 190° South 169 194 4,100 48 Climbing Indianapolis Center
Thu 02:57:03 PM 37.6228 -86.6256 189° South 169 194 4,100 -48 Level Indianapolis Center
Thu 02:58:05 PM 37.5775 -86.6331 187° South 165 190 4,000  Descending Indianapolis Center
Thu 02:59:07 PM 37.5322 -86.6417 189° South 163 188 4,100 48 Climbing Indianapolis Center
Thu 03:00:09 PM 37.4772 -86.6506 187° South 165 190 4,100  Level Indianapolis Center
Thu 03:01:11 PM 37.4308 -86.6619 191° South 168 193 4,100  Level Indianapolis Center
Thu 03:02:13 PM 37.3822 -86.6689 186° South 173 199 4,100  Level Indianapolis Center
Thu 03:03:15 PM 37.3350 -86.6772 188° South 171 197 4,100  Level Indianapolis Center
Thu 03:04:18 PM 37.2881 -86.6872 190° South 170 196 4,100  Level Indianapolis Center
Thu 03:05:20 PM 37.2356 -86.6953 187° South 170 196 4,100  Level Indianapolis Center
Thu 03:06:22 PM 37.1881 -86.7042 188° South 171 197 4,100  Level Indianapolis Center
Thu 03:07:24 PM 37.1406 -86.7133 189° South 171 197 4,100 -48 Level Indianapolis Center
Thu 03:08:26 PM 37.0944 -86.7211 188° South 168 193 4,000  Descending Indianapolis Center
Thu 03:09:28 PM 37.0478 -86.7311 190° South 167 192 4,100 48 Climbing Indianapolis Center
Thu 03:10:30 PM 37.0000 -86.7397 188° South 171 197 4,100 -48 Level Indianapolis Center
Thu 03:11:32 PM 36.9439 -86.7503 189° South 173 199 4,000 -48 Descending Indianapolis Center
Thu 03:12:34 PM 36.8950 -86.7600 189° South 174 200 4,000  Level Indianapolis Center
Thu 03:13:08 PM 36.8714 -86.7650 190° South 180 207 4,000 64 Level Memphis Center
Thu 03:14:08 PM 36.8239 -86.7725 187° South 180 207 4,100 100 Climbing Memphis Center

Login

Don't have an account? Register now (free) for customized features, flight alerts, and more!